sensor_id;sensor_type;location;lat;lon;timestamp;pressure;altitude;pressure_sealevel;temperature;humidity
57056;BME280;42945;51.718;5.324;2023-04-05T00:03:47;102291.97;;;0.55;100.00
57056;BME280;42945;51.718;5.324;2023-04-05T00:09:35;102302.34;;;0.46;100.00
57056;BME280;42945;51.718;5.324;2023-04-05T00:19:17;102290.84;;;0.25;100.00
57056;BME280;42945;51.718;5.324;2023-04-05T00:25:06;102292.47;;;0.09;100.00
57056;BME280;42945;51.718;5.324;2023-04-05T00:30:55;102144.19;;;-0.49;100.00
57056;BME280;42945;51.718;5.324;2023-04-05T00:36:43;102315.00;;;0.01;100.00
57056;BME280;42945;51.718;5.324;2023-04-05T00:42:32;102318.31;;;-0.14;100.00
57056;BME280;42945;51.718;5.324;2023-04-05T00:48:19;102019.47;;;-1.89;100.00
57056;BME280;42945;51.718;5.324;2023-04-05T00:54:08;102313.78;;;-0.32;100.00
57056;BME280;42945;51.718;5.324;2023-04-05T00:59:58;102294.59;;;-0.40;100.00
57056;BME280;42945;51.718;5.324;2023-04-05T01:05:50;102306.75;;;-0.39;100.00
57056;BME280;42945;51.718;5.324;2023-04-05T01:11:41;102279.06;;;-0.28;100.00
57056;BME280;42945;51.718;5.324;2023-04-05T01:33:58;102297.66;;;-0.75;100.00
57056;BME280;42945;51.718;5.324;2023-04-05T01:39:49;102157.16;;;-1.34;100.00
57056;BME280;42945;51.718;5.324;2023-04-05T01:45:40;102278.44;;;-0.83;100.00
57056;BME280;42945;51.718;5.324;2023-04-05T01:51:27;102295.00;;;-0.78;100.00
57056;BME280;42945;51.718;5.324;2023-04-05T01:57:16;102252.22;;;-1.60;100.00
57056;BME280;42945;51.718;5.324;2023-04-05T02:03:03;102514.69;;;0.49;100.00
57056;BME280;42945;51.718;5.324;2023-04-05T02:08:51;102158.75;;;-1.44;100.00
57056;BME280;42945;51.718;5.324;2023-04-05T02:14:40;102274.47;;;-1.21;100.00
57056;BME280;42945;51.718;5.324;2023-04-05T02:24:29;102244.91;;;-1.26;100.00
57056;BME280;42945;51.718;5.324;2023-04-05T02:30:16;102206.47;;;-1.44;100.00
57056;BME280;42945;51.718;5.324;2023-04-05T02:36:06;102212.69;;;-1.32;100.00
57056;BME280;42945;51.718;5.324;2023-04-05T02:41:56;102142.13;;;-2.16;100.00
57056;BME280;42945;51.718;5.324;2023-04-05T02:47:45;102268.69;;;-1.59;100.00
57056;BME280;42945;51.718;5.324;2023-04-05T02:53:33;102212.31;;;-1.60;100.00
57056;BME280;42945;51.718;5.324;2023-04-05T02:59:22;102262.88;;;-1.43;100.00
57056;BME280;42945;51.718;5.324;2023-04-05T03:05:09;102266.88;;;-1.63;100.00
57056;BME280;42945;51.718;5.324;2023-04-05T03:10:58;102219.13;;;-1.68;100.00
57056;BME280;42945;51.718;5.324;2023-04-05T03:16:45;102195.59;;;-1.77;100.00
57056;BME280;42945;51.718;5.324;2023-04-05T03:26:27;102145.13;;;-1.89;100.00
57056;BME280;42945;51.718;5.324;2023-04-05T03:32:15;102090.38;;;-2.58;100.00
57056;BME280;42945;51.718;5.324;2023-04-05T03:38:09;102181.97;;;-1.60;100.00
57056;BME280;42945;51.718;5.324;2023-04-05T03:43:58;102187.16;;;-1.60;100.00
57056;BME280;42945;51.718;5.324;2023-04-05T03:49:47;102204.56;;;-1.55;100.00
57056;BME280;42945;51.718;5.324;2023-04-05T03:55:35;102200.28;;;-1.52;100.00
57056;BME280;42945;51.718;5.324;2023-04-05T04:01:22;102204.56;;;-1.57;100.00
57056;BME280;42945;51.718;5.324;2023-04-05T04:07:10;102308.69;;;-0.94;100.00
57056;BME280;42945;51.718;5.324;2023-04-05T04:12:58;102135.81;;;-1.73;100.00
57056;BME280;42945;51.718;5.324;2023-04-05T04:18:46;135343.38;;;191.27;100.00
57056;BME280;42945;51.718;5.324;2023-04-05T04:28:29;102204.53;;;-1.59;100.00
57056;BME280;42945;51.718;5.324;2023-04-05T04:34:20;102080.59;;;-2.18;100.00
57056;BME280;42945;51.718;5.324;2023-04-05T04:40:08;102174.22;;;-1.56;100.00
57056;BME280;42945;51.718;5.324;2023-04-05T04:45:58;102158.34;;;-1.75;100.00
57056;BME280;42945;51.718;5.324;2023-04-05T04:51:46;102154.78;;;-1.82;100.00
57056;BME280;42945;51.718;5.324;2023-04-05T04:57:34;102303.47;;;-0.94;100.00
57056;BME280;42945;51.718;5.324;2023-04-05T05:03:22;102082.06;;;-1.75;100.00
57056;BME280;42945;51.718;5.324;2023-04-05T05:09:11;102163.00;;;-1.52;100.00
57056;BME280;42945;51.718;5.324;2023-04-05T05:14:58;102167.97;;;-1.68;100.00
57056;BME280;42945;51.718;5.324;2023-04-05T05:20:49;102158.66;;;-1.52;100.00
57056;BME280;42945;51.718;5.324;2023-04-05T05:30:33;102159.53;;;-1.53;100.00
57056;BME280;42945;51.718;5.324;2023-04-05T05:36:20;102118.00;;;-1.44;100.00
57056;BME280;42945;51.718;5.324;2023-04-05T05:42:09;102187.75;;;-1.18;100.00
57056;BME280;42945;51.718;5.324;2023-04-05T05:47:58;102162.59;;;-1.16;100.00
57056;BME280;42945;51.718;5.324;2023-04-05T05:53:45;102122.84;;;-1.03;100.00
57056;BME280;42945;51.718;5.324;2023-04-05T05:59:33;102140.59;;;-0.63;100.00
57056;BME280;42945;51.718;5.324;2023-04-05T06:05:20;102147.84;;;-0.30;100.00
57056;BME280;42945;51.718;5.324;2023-04-05T06:11:18;102118.47;;;-0.06;100.00
57056;BME280;42945;51.718;5.324;2023-04-05T06:17:06;102136.94;;;0.24;100.00
57056;BME280;42945;51.718;5.324;2023-04-05T06:22:54;102118.72;;;0.31;100.00
57056;BME280;42945;51.718;5.324;2023-04-05T06:32:36;102148.47;;;0.70;100.00
57056;BME280;42945;51.718;5.324;2023-04-05T06:38:24;102132.00;;;0.94;100.00
57056;BME280;42945;51.718;5.324;2023-04-05T06:44:11;102119.84;;;1.12;100.00
57056;BME280;42945;51.718;5.324;2023-04-05T06:50:00;102116.44;;;1.42;100.00
57056;BME280;42945;51.718;5.324;2023-04-05T06:55:49;101997.06;;;0.86;100.00
57056;BME280;42945;51.718;5.324;2023-04-05T07:01:38;102103.38;;;1.73;100.00
57056;BME280;42945;51.718;5.324;2023-04-05T07:07:27;102153.88;;;2.09;100.00
57056;BME280;42945;51.718;5.324;2023-04-05T07:13:16;102102.34;;;2.32;100.00
57056;BME280;42945;51.718;5.324;2023-04-05T07:19:04;102129.38;;;2.45;100.00
57056;BME280;42945;51.718;5.324;2023-04-05T07:24:53;102003.03;;;2.00;100.00
57056;BME280;42945;51.718;5.324;2023-04-05T07:34:35;102170.16;;;3.11;100.00
57056;BME280;42945;51.718;5.324;2023-04-05T07:40:24;102206.47;;;3.75;100.00
57056;BME280;42945;51.718;5.324;2023-04-05T07:46:12;102123.38;;;3.74;100.00
57056;BME280;42945;51.718;5.324;2023-04-05T07:51:59;102113.69;;;3.84;100.00
57056;BME280;42945;51.718;5.324;2023-04-05T07:57:47;102117.72;;;4.19;100.00
57056;BME280;42945;51.718;5.324;2023-04-05T08:03:36;101996.81;;;3.51;100.00
57056;BME280;42945;51.718;5.324;2023-04-05T08:09:26;102144.50;;;4.52;100.00
57056;BME280;42945;51.718;5.324;2023-04-05T08:15:14;101977.81;;;4.08;100.00
57056;BME280;42945;51.718;5.324;2023-04-05T08:21:03;102100.22;;;4.89;100.00
57056;BME280;42945;51.718;5.324;2023-04-05T08:26:51;102012.28;;;4.50;100.00
57056;BME280;42945;51.718;5.324;2023-04-05T08:36:34;102120.47;;;5.43;100.00
57056;BME280;42945;51.718;5.324;2023-04-05T08:42:45;102080.22;;;5.37;100.00
57056;BME280;42945;51.718;5.324;2023-04-05T08:48:34;102209.34;;;6.36;100.00
57056;BME280;42945;51.718;5.324;2023-04-05T08:54:28;102079.31;;;5.89;100.00
57056;BME280;42945;51.718;5.324;2023-04-05T09:00:17;102081.66;;;6.09;100.00
57056;BME280;42945;51.718;5.324;2023-04-05T09:06:07;102044.97;;;5.98;99.63
57056;BME280;42945;51.718;5.324;2023-04-05T09:11:58;101973.13;;;5.43;89.16
57056;BME280;42945;51.718;5.324;2023-04-05T09:17:46;102086.59;;;7.07;92.88
57056;BME280;42945;51.718;5.324;2023-04-05T09:23:35;102187.81;;;7.03;84.60
57056;BME280;42945;51.718;5.324;2023-04-05T09:29:30;101936.63;;;6.17;82.08
57056;BME280;42945;51.718;5.324;2023-04-05T09:39:16;102069.91;;;7.06;77.61
57056;BME280;42945;51.718;5.324;2023-04-05T09:45:09;102035.63;;;7.06;68.96
57056;BME280;42945;51.718;5.324;2023-04-05T09:51:04;102070.31;;;6.88;63.03
57056;BME280;42945;51.718;5.324;2023-04-05T09:56:55;101965.28;;;6.32;62.93
57056;BME280;42945;51.718;5.324;2023-04-05T10:02:44;102024.28;;;7.39;63.36
57056;BME280;42945;51.718;5.324;2023-04-05T10:08:34;102172.84;;;7.81;62.90
57056;BME280;42945;51.718;5.324;2023-04-05T10:14:22;102017.19;;;7.41;58.41
57056;BME280;42945;51.718;5.324;2023-04-05T10:20:20;101992.63;;;7.39;59.89
57056;BME280;42945;51.718;5.324;2023-04-05T10:26:53;102044.50;;;7.74;65.08
57056;BME280;42945;51.718;5.324;2023-04-05T10:45:11;102033.13;;;8.03;63.00
57056;BME280;42945;51.718;5.324;2023-04-05T10:51:02;101911.84;;;6.63;62.26
57056;BME280;42945;51.718;5.324;2023-04-05T10:56:52;101993.69;;;7.97;61.41
57056;BME280;42945;51.718;5.324;2023-04-05T11:02:41;102392.09;;;9.26;60.20
57056;BME280;42945;51.718;5.324;2023-04-05T11:08:31;102144.25;;;8.94;61.86
57056;BME280;42945;51.718;5.324;2023-04-05T11:20:14;102013.56;;;8.42;58.66
57056;BME280;42945;51.718;5.324;2023-04-05T11:26:06;101978.91;;;8.20;58.70
57056;BME280;42945;51.718;5.324;2023-04-05T11:32:05;101973.38;;;8.29;60.21
57056;BME280;42945;51.718;5.324;2023-04-05T11:43:50;102330.31;;;9.27;55.29
57056;BME280;42945;51.718;5.324;2023-04-05T11:49:39;101905.66;;;9.33;54.21
57056;BME280;42945;51.718;5.324;2023-04-05T11:55:28;101898.75;;;8.49;54.78
57056;BME280;42945;51.718;5.324;2023-04-05T12:01:17;101944.16;;;9.42;55.67
57056;BME280;42945;51.718;5.324;2023-04-05T12:07:16;101960.03;;;9.92;53.17
57056;BME280;42945;51.718;5.324;2023-04-05T12:13:04;101925.91;;;9.34;52.06
57056;BME280;42945;51.718;5.324;2023-04-05T12:18:57;101816.19;;;9.43;49.61
57056;BME280;42945;51.718;5.324;2023-04-05T12:24:45;101870.97;;;9.88;47.19
57056;BME280;42945;51.718;5.324;2023-04-05T12:30:34;101889.69;;;10.07;47.01
57056;BME280;42945;51.718;5.324;2023-04-05T12:36:26;102025.69;;;11.02;47.94
57056;BME280;42945;51.718;5.324;2023-04-05T12:42:17;101948.75;;;9.87;50.90
57056;BME280;42945;51.718;5.324;2023-04-05T12:48:12;101867.88;;;9.77;49.09
57056;BME280;42945;51.718;5.324;2023-04-05T12:54:01;101800.66;;;9.09;46.83
57056;BME280;42945;51.718;5.324;2023-04-05T12:59:50;101850.00;;;10.28;48.01
57056;BME280;42945;51.718;5.324;2023-04-05T13:05:37;101877.59;;;10.46;49.49
57056;BME280;42945;51.718;5.324;2023-04-05T13:11:24;101979.25;;;10.90;49.82
57056;BME280;42945;51.718;5.324;2023-04-05T13:17:12;101774.72;;;9.88;49.00
57056;BME280;42945;51.718;5.324;2023-04-05T13:22:59;101919.63;;;11.60;47.89
57056;BME280;42945;51.718;5.324;2023-04-05T13:28:48;101747.50;;;9.84;47.40
57056;BME280;42945;51.718;5.324;2023-04-05T13:34:35;101766.13;;;10.25;49.15
57056;BME280;42945;51.718;5.324;2023-04-05T13:44:24;101841.09;;;10.30;45.18
57056;BME280;42945;51.718;5.324;2023-04-05T13:50:11;101792.47;;;10.52;45.38
57056;BME280;42945;51.718;5.324;2023-04-05T13:55:59;101814.72;;;10.90;45.45
57056;BME280;42945;51.718;5.324;2023-04-05T14:01:46;101849.00;;;11.15;45.83
57056;BME280;42945;51.718;5.324;2023-04-05T14:07:34;101804.69;;;10.76;47.12
57056;BME280;42945;51.718;5.324;2023-04-05T14:13:22;101797.72;;;11.15;44.48
57056;BME280;42945;51.718;5.324;2023-04-05T14:19:17;101792.50;;;11.51;44.73
57056;BME280;42945;51.718;5.324;2023-04-05T14:25:06;101829.84;;;11.48;46.58
57056;BME280;42945;51.718;5.324;2023-04-05T14:30:55;101759.28;;;11.42;45.57
57056;BME280;42945;51.718;5.324;2023-04-05T14:36:45;101801.16;;;10.76;45.34
57056;BME280;42945;51.718;5.324;2023-04-05T14:46:29;101798.13;;;10.85;45.77
57056;BME280;42945;51.718;5.324;2023-04-05T14:52:17;101733.69;;;10.81;46.48
57056;BME280;42945;51.718;5.324;2023-04-05T14:58:04;101622.06;;;10.47;47.03
57056;BME280;42945;51.718;5.324;2023-04-05T15:03:52;101781.94;;;11.31;45.05
57056;BME280;42945;51.718;5.324;2023-04-05T15:09:40;101735.25;;;11.06;44.58
57056;BME280;42945;51.718;5.324;2023-04-05T15:15:28;101647.53;;;10.51;44.70
57056;BME280;42945;51.718;5.324;2023-04-05T15:21:16;101756.00;;;10.77;44.03
57056;BME280;42945;51.718;5.324;2023-04-05T15:27:05;101659.84;;;10.11;46.90
57056;BME280;42945;51.718;5.324;2023-04-05T15:32:53;101629.44;;;9.77;45.29
57056;BME280;42945;51.718;5.324;2023-04-05T15:38:41;101725.41;;;10.89;46.76
57056;BME280;42945;51.718;5.324;2023-04-05T15:44:28;101700.28;;;11.17;45.46
57056;BME280;42945;51.718;5.324;2023-04-05T15:50:17;101711.31;;;11.27;44.46
57056;BME280;42945;51.718;5.324;2023-04-05T15:56:06;101608.00;;;10.44;43.99
57056;BME280;42945;51.718;5.324;2023-04-05T16:01:54;101545.53;;;10.96;43.57
57056;BME280;42945;51.718;5.324;2023-04-05T16:07:41;101700.59;;;11.47;43.22
57056;BME280;42945;51.718;5.324;2023-04-05T16:13:30;101578.91;;;11.73;44.42
57056;BME280;42945;51.718;5.324;2023-04-05T16:19:30;116100.16;;;95.90;42.16
57056;BME280;42945;51.718;5.324;2023-04-05T16:25:17;101635.81;;;12.38;45.12
57056;BME280;42945;51.718;5.324;2023-04-05T16:31:07;101700.97;;;12.82;40.79
57056;BME280;42945;51.718;5.324;2023-04-05T16:36:54;101599.69;;;12.34;41.83
57056;BME280;42945;51.718;5.324;2023-04-05T16:42:43;101602.13;;;13.20;40.38
57056;BME280;42945;51.718;5.324;2023-04-05T16:48:30;101683.34;;;14.37;40.44
57056;BME280;42945;51.718;5.324;2023-04-05T16:54:19;101732.09;;;14.25;39.71
57056;BME280;42945;51.718;5.324;2023-04-05T17:00:08;101657.81;;;14.03;40.30
57056;BME280;42945;51.718;5.324;2023-04-05T17:05:56;101713.22;;;13.51;40.86
57056;BME280;42945;51.718;5.324;2023-04-05T17:11:45;101636.53;;;13.41;39.15
57056;BME280;42945;51.718;5.324;2023-04-05T17:17:34;101670.19;;;11.16;43.12
57056;BME280;42945;51.718;5.324;2023-04-05T17:23:23;101694.00;;;9.96;45.95
57056;BME280;42945;51.718;5.324;2023-04-05T17:29:12;101779.97;;;10.11;48.83
57056;BME280;42945;51.718;5.324;2023-04-05T17:35:07;101585.53;;;8.36;49.27
57056;BME280;42945;51.718;5.324;2023-04-05T17:40:54;101651.19;;;8.95;50.28
57056;BME280;42945;51.718;5.324;2023-04-05T17:50:45;101586.44;;;7.84;53.31
57056;BME280;42945;51.718;5.324;2023-04-05T17:56:32;101707.72;;;8.17;54.47
57056;BME280;42945;51.718;5.324;2023-04-05T18:02:20;101690.59;;;8.02;56.40
57056;BME280;42945;51.718;5.324;2023-04-05T18:08:10;101355.00;;;5.40;61.51
57056;BME280;42945;51.718;5.324;2023-04-05T18:13:58;101687.31;;;7.41;65.34
57056;BME280;42945;51.718;5.324;2023-04-05T18:19:45;101599.69;;;6.42;65.38
57056;BME280;42945;51.718;5.324;2023-04-05T18:25:35;101720.50;;;6.88;66.90
57056;BME280;42945;51.718;5.324;2023-04-05T18:31:23;101703.19;;;6.78;68.11
57056;BME280;42945;51.718;5.324;2023-04-05T18:37:12;101604.56;;;5.88;69.02
57056;BME280;42945;51.718;5.324;2023-04-05T18:43:01;101720.31;;;6.29;76.56
57056;BME280;42945;51.718;5.324;2023-04-05T18:52:43;101704.78;;;5.81;100.00
57056;BME280;42945;51.718;5.324;2023-04-05T18:58:32;101573.88;;;4.78;100.00
57056;BME280;42945;51.718;5.324;2023-04-05T19:04:20;101609.66;;;4.84;94.87
57056;BME280;42945;51.718;5.324;2023-04-05T19:10:09;101867.69;;;5.95;92.95
57056;BME280;42945;51.718;5.324;2023-04-05T19:15:56;101703.63;;;5.16;94.72
57056;BME280;42945;51.718;5.324;2023-04-05T19:21:45;101788.06;;;5.01;100.00
57056;BME280;42945;51.718;5.324;2023-04-05T19:27:34;101709.69;;;4.76;100.00
57056;BME280;42945;51.718;5.324;2023-04-05T19:33:23;101858.63;;;5.25;100.00
57056;BME280;42945;51.718;5.324;2023-04-05T19:39:11;101698.03;;;4.44;100.00
57056;BME280;42945;51.718;5.324;2023-04-05T19:45:00;101723.66;;;4.30;100.00
57056;BME280;42945;51.718;5.324;2023-04-05T19:54:42;130416.50;;;171.66;100.00
57056;BME280;42945;51.718;5.324;2023-04-05T20:06:19;101864.47;;;4.40;100.00
57056;BME280;42945;51.718;5.324;2023-04-05T20:12:08;101584.94;;;3.00;100.00
57056;BME280;42945;51.718;5.324;2023-04-05T20:17:59;101767.44;;;3.73;100.00
57056;BME280;42945;51.718;5.324;2023-04-05T20:23:47;101719.56;;;3.59;100.00
57056;BME280;42945;51.718;5.324;2023-04-05T20:29:34;101695.00;;;3.65;100.00
57056;BME280;42945;51.718;5.324;2023-04-05T20:35:32;102025.81;;;3.35;100.00
57056;BME280;42945;51.718;5.324;2023-04-05T20:41:21;101593.19;;;2.73;100.00
57056;BME280;42945;51.718;5.324;2023-04-05T20:47:09;101456.03;;;2.14;100.00
57056;BME280;42945;51.718;5.324;2023-04-05T20:56:51;101705.41;;;3.68;100.00
57056;BME280;42945;51.718;5.324;2023-04-05T21:02:39;101680.44;;;3.44;100.00
57056;BME280;42945;51.718;5.324;2023-04-05T21:08:29;101634.09;;;3.44;100.00
57056;BME280;42945;51.718;5.324;2023-04-05T21:14:18;101671.28;;;3.69;100.00
57056;BME280;42945;51.718;5.324;2023-04-05T21:20:06;101222.09;;;2.74;100.00
57056;BME280;42945;51.718;5.324;2023-04-05T21:25:55;101631.69;;;3.30;100.00
57056;BME280;42945;51.718;5.324;2023-04-05T21:31:43;101627.28;;;3.32;100.00
57056;BME280;42945;51.718;5.324;2023-04-05T21:37:31;101519.16;;;2.58;100.00
57056;BME280;42945;51.718;5.324;2023-04-05T21:43:19;101696.47;;;3.22;100.00
57056;BME280;42945;51.718;5.324;2023-04-05T21:49:08;101691.88;;;3.40;100.00
57056;BME280;42945;51.718;5.324;2023-04-05T21:58:51;101553.28;;;2.50;100.00
57056;BME280;42945;51.718;5.324;2023-04-05T22:04:38;101670.34;;;3.16;100.00
57056;BME280;42945;51.718;5.324;2023-04-05T22:10:26;101640.78;;;3.05;100.00
57056;BME280;42945;51.718;5.324;2023-04-05T22:16:15;101657.56;;;2.90;100.00
57056;BME280;42945;51.718;5.324;2023-04-05T22:22:03;101636.06;;;2.62;100.00
57056;BME280;42945;51.718;5.324;2023-04-05T22:27:50;101518.25;;;1.89;100.00
57056;BME280;42945;51.718;5.324;2023-04-05T22:33:39;101703.28;;;2.63;100.00
57056;BME280;42945;51.718;5.324;2023-04-05T22:39:27;101659.69;;;2.57;100.00
57056;BME280;42945;51.718;5.324;2023-04-05T22:45:15;101639.16;;;2.20;100.00
57056;BME280;42945;51.718;5.324;2023-04-05T22:51:02;101632.22;;;2.17;100.00
57056;BME280;42945;51.718;5.324;2023-04-05T22:56:49;101524.56;;;1.71;100.00
57056;BME280;42945;51.718;5.324;2023-04-05T23:02:38;101613.59;;;2.45;100.00
57056;BME280;42945;51.718;5.324;2023-04-05T23:08:25;101644.13;;;2.45;100.00
57056;BME280;42945;51.718;5.324;2023-04-05T23:14:14;101558.25;;;1.99;100.00
57056;BME280;42945;51.718;5.324;2023-04-05T23:20:04;101642.78;;;2.07;100.00
57056;BME280;42945;51.718;5.324;2023-04-05T23:25:51;101582.91;;;1.74;100.00
57056;BME280;42945;51.718;5.324;2023-04-05T23:31:38;101589.16;;;1.56;100.00
57056;BME280;42945;51.718;5.324;2023-04-05T23:37:26;101618.75;;;1.60;100.00
57056;BME280;42945;51.718;5.324;2023-04-05T23:43:14;101571.81;;;1.48;100.00
57056;BME280;42945;51.718;5.324;2023-04-05T23:49:02;101625.69;;;1.66;100.00
57056;BME280;42945;51.718;5.324;2023-04-05T23:54:49;101472.91;;;1.02;100.00
